sensor_id;sensor_type;location;lat;lon;timestamp;temperature;humidity
14769;DHT22;7476;49.404;11.152;2023-05-16T00:01:01;7.30;99.90
14769;DHT22;7476;49.404;11.152;2023-05-16T00:03:28;7.30;99.90
14769;DHT22;7476;49.404;11.152;2023-05-16T00:05:57;7.30;99.90
14769;DHT22;7476;49.404;11.152;2023-05-16T00:08:23;7.10;99.90
14769;DHT22;7476;49.404;11.152;2023-05-16T00:10:51;7.10;99.90
14769;DHT22;7476;49.404;11.152;2023-05-16T00:13:17;7.10;99.90
14769;DHT22;7476;49.404;11.152;2023-05-16T00:15:49;7.20;99.90
14769;DHT22;7476;49.404;11.152;2023-05-16T00:18:16;7.30;99.90
14769;DHT22;7476;49.404;11.152;2023-05-16T00:20:43;7.20;99.90
14769;DHT22;7476;49.404;11.152;2023-05-16T00:23:12;7.10;99.90
14769;DHT22;7476;49.404;11.152;2023-05-16T00:25:39;7.10;99.90
14769;DHT22;7476;49.404;11.152;2023-05-16T00:28:06;7.00;99.90
14769;DHT22;7476;49.404;11.152;2023-05-16T00:30:33;6.90;99.90
14769;DHT22;7476;49.404;11.152;2023-05-16T00:33:00;6.90;99.90
14769;DHT22;7476;49.404;11.152;2023-05-16T00:35:27;6.90;99.90
14769;DHT22;7476;49.404;11.152;2023-05-16T00:37:54;6.80;99.90
14769;DHT22;7476;49.404;11.152;2023-05-16T00:40:22;6.70;99.90
14769;DHT22;7476;49.404;11.152;2023-05-16T00:42:49;6.70;99.90
14769;DHT22;7476;49.404;11.152;2023-05-16T00:45:16;6.70;99.90
14769;DHT22;7476;49.404;11.152;2023-05-16T00:47:43;6.70;99.90
14769;DHT22;7476;49.404;11.152;2023-05-16T00:50:10;6.80;99.90
14769;DHT22;7476;49.404;11.152;2023-05-16T00:52:36;6.80;99.90
14769;DHT22;7476;49.404;11.152;2023-05-16T00:55:04;6.80;99.90
14769;DHT22;7476;49.404;11.152;2023-05-16T00:57:32;6.70;99.90
14769;DHT22;7476;49.404;11.152;2023-05-16T01:00:00;6.60;99.90
14769;DHT22;7476;49.404;11.152;2023-05-16T01:02:27;6.60;99.90
14769;DHT22;7476;49.404;11.152;2023-05-16T01:04:55;6.50;99.90
14769;DHT22;7476;49.404;11.152;2023-05-16T01:07:21;6.50;99.90
14769;DHT22;7476;49.404;11.152;2023-05-16T01:09:49;6.50;99.90
14769;DHT22;7476;49.404;11.152;2023-05-16T01:12:20;6.50;99.90
14769;DHT22;7476;49.404;11.152;2023-05-16T01:14:55;6.50;99.90
14769;DHT22;7476;49.404;11.152;2023-05-16T01:17:31;6.60;99.90
14769;DHT22;7476;49.404;11.152;2023-05-16T01:20:05;6.60;99.90
14769;DHT22;7476;49.404;11.152;2023-05-16T01:22:51;6.70;99.90
14769;DHT22;7476;49.404;11.152;2023-05-16T01:25:30;6.70;99.90
14769;DHT22;7476;49.404;11.152;2023-05-16T01:28:03;6.60;99.90
14769;DHT22;7476;49.404;11.152;2023-05-16T01:30:33;6.70;99.90
14769;DHT22;7476;49.404;11.152;2023-05-16T01:33:00;6.70;99.90
14769;DHT22;7476;49.404;11.152;2023-05-16T01:35:27;6.70;99.90
14769;DHT22;7476;49.404;11.152;2023-05-16T01:37:58;6.80;99.90
14769;DHT22;7476;49.404;11.152;2023-05-16T01:40:35;7.10;99.90
14769;DHT22;7476;49.404;11.152;2023-05-16T01:43:16;7.30;99.90
14769;DHT22;7476;49.404;11.152;2023-05-16T01:45:47;7.20;99.90
14769;DHT22;7476;49.404;11.152;2023-05-16T01:48:19;7.20;99.90
14769;DHT22;7476;49.404;11.152;2023-05-16T01:50:53;7.10;99.90
14769;DHT22;7476;49.404;11.152;2023-05-16T01:53:26;6.90;99.90
14769;DHT22;7476;49.404;11.152;2023-05-16T01:55:56;6.80;99.90
14769;DHT22;7476;49.404;11.152;2023-05-16T01:58:29;6.80;99.90
14769;DHT22;7476;49.404;11.152;2023-05-16T02:01:01;6.70;99.90
14769;DHT22;7476;49.404;11.152;2023-05-16T02:03:28;6.80;99.90
14769;DHT22;7476;49.404;11.152;2023-05-16T02:05:55;7.00;99.90
14769;DHT22;7476;49.404;11.152;2023-05-16T02:08:22;7.00;99.90
14769;DHT22;7476;49.404;11.152;2023-05-16T02:10:49;7.00;99.90
14769;DHT22;7476;49.404;11.152;2023-05-16T02:13:15;7.00;99.90
14769;DHT22;7476;49.404;11.152;2023-05-16T02:15:43;7.10;99.90
14769;DHT22;7476;49.404;11.152;2023-05-16T02:18:10;7.10;99.90
14769;DHT22;7476;49.404;11.152;2023-05-16T02:20:37;7.00;99.90
14769;DHT22;7476;49.404;11.152;2023-05-16T02:23:05;6.90;99.90
14769;DHT22;7476;49.404;11.152;2023-05-16T02:25:31;6.90;99.90
14769;DHT22;7476;49.404;11.152;2023-05-16T02:27:58;6.90;99.90
14769;DHT22;7476;49.404;11.152;2023-05-16T02:30:25;6.80;99.90
14769;DHT22;7476;49.404;11.152;2023-05-16T02:32:53;6.70;99.90
14769;DHT22;7476;49.404;11.152;2023-05-16T02:35:20;6.80;99.90
14769;DHT22;7476;49.404;11.152;2023-05-16T02:37:46;7.00;99.90
14769;DHT22;7476;49.404;11.152;2023-05-16T02:40:13;6.80;99.90
14769;DHT22;7476;49.404;11.152;2023-05-16T02:42:40;6.60;99.90
14769;DHT22;7476;49.404;11.152;2023-05-16T02:45:07;6.40;99.90
14769;DHT22;7476;49.404;11.152;2023-05-16T02:47:34;6.30;99.90
14769;DHT22;7476;49.404;11.152;2023-05-16T02:50:02;6.20;99.90
14769;DHT22;7476;49.404;11.152;2023-05-16T02:52:29;6.10;99.90
14769;DHT22;7476;49.404;11.152;2023-05-16T02:54:55;6.20;99.90
14769;DHT22;7476;49.404;11.152;2023-05-16T02:57:22;6.30;99.90
14769;DHT22;7476;49.404;11.152;2023-05-16T02:59:49;6.30;99.90
14769;DHT22;7476;49.404;11.152;2023-05-16T03:02:16;6.20;99.90
14769;DHT22;7476;49.404;11.152;2023-05-16T03:04:42;6.20;99.90
14769;DHT22;7476;49.404;11.152;2023-05-16T03:07:10;6.30;99.90
14769;DHT22;7476;49.404;11.152;2023-05-16T03:09:37;6.30;99.90
14769;DHT22;7476;49.404;11.152;2023-05-16T03:12:04;6.50;99.90
14769;DHT22;7476;49.404;11.152;2023-05-16T03:14:31;6.50;99.90
14769;DHT22;7476;49.404;11.152;2023-05-16T03:16:58;6.50;99.90
14769;DHT22;7476;49.404;11.152;2023-05-16T03:19:24;6.60;99.90
14769;DHT22;7476;49.404;11.152;2023-05-16T03:21:51;6.70;99.90
14769;DHT22;7476;49.404;11.152;2023-05-16T03:24:19;6.70;99.90
14769;DHT22;7476;49.404;11.152;2023-05-16T03:26:47;6.80;99.90
14769;DHT22;7476;49.404;11.152;2023-05-16T03:29:13;6.80;99.90
14769;DHT22;7476;49.404;11.152;2023-05-16T03:31:41;6.90;99.90
14769;DHT22;7476;49.404;11.152;2023-05-16T03:34:07;6.90;99.90
14769;DHT22;7476;49.404;11.152;2023-05-16T03:36:34;7.00;99.90
14769;DHT22;7476;49.404;11.152;2023-05-16T03:39:01;7.30;99.90
14769;DHT22;7476;49.404;11.152;2023-05-16T03:41:29;7.30;99.90
14769;DHT22;7476;49.404;11.152;2023-05-16T03:43:56;7.30;99.90
14769;DHT22;7476;49.404;11.152;2023-05-16T03:46:23;7.40;99.90
14769;DHT22;7476;49.404;11.152;2023-05-16T03:48:49;7.40;99.90
14769;DHT22;7476;49.404;11.152;2023-05-16T03:51:16;7.40;99.90
14769;DHT22;7476;49.404;11.152;2023-05-16T03:53:42;7.40;99.90
14769;DHT22;7476;49.404;11.152;2023-05-16T03:56:09;7.50;99.90
14769;DHT22;7476;49.404;11.152;2023-05-16T03:58:37;7.60;99.90
14769;DHT22;7476;49.404;11.152;2023-05-16T04:01:04;7.60;99.90
14769;DHT22;7476;49.404;11.152;2023-05-16T04:03:30;7.60;99.90
14769;DHT22;7476;49.404;11.152;2023-05-16T04:05:58;7.70;99.90
14769;DHT22;7476;49.404;11.152;2023-05-16T04:08:25;7.70;99.90
14769;DHT22;7476;49.404;11.152;2023-05-16T04:10:52;7.80;99.90
14769;DHT22;7476;49.404;11.152;2023-05-16T04:13:19;7.90;99.90
14769;DHT22;7476;49.404;11.152;2023-05-16T04:15:47;7.90;99.90
14769;DHT22;7476;49.404;11.152;2023-05-16T04:18:13;8.00;99.90
14769;DHT22;7476;49.404;11.152;2023-05-16T04:20:41;8.00;99.90
14769;DHT22;7476;49.404;11.152;2023-05-16T04:23:08;8.10;99.90
14769;DHT22;7476;49.404;11.152;2023-05-16T04:25:36;8.10;99.90
14769;DHT22;7476;49.404;11.152;2023-05-16T04:28:03;8.10;99.90
14769;DHT22;7476;49.404;11.152;2023-05-16T04:30:30;8.20;99.90
14769;DHT22;7476;49.404;11.152;2023-05-16T04:32:58;8.20;99.90
14769;DHT22;7476;49.404;11.152;2023-05-16T04:35:26;8.30;99.90
14769;DHT22;7476;49.404;11.152;2023-05-16T04:37:53;8.30;99.90
14769;DHT22;7476;49.404;11.152;2023-05-16T04:40:20;8.40;99.90
14769;DHT22;7476;49.404;11.152;2023-05-16T04:42:46;8.50;99.90
14769;DHT22;7476;49.404;11.152;2023-05-16T04:45:14;8.50;99.90
14769;DHT22;7476;49.404;11.152;2023-05-16T04:47:40;8.60;99.90
14769;DHT22;7476;49.404;11.152;2023-05-16T04:50:09;8.70;99.90
14769;DHT22;7476;49.404;11.152;2023-05-16T04:52:36;8.80;99.90
14769;DHT22;7476;49.404;11.152;2023-05-16T04:55:04;8.80;99.90
14769;DHT22;7476;49.404;11.152;2023-05-16T04:57:31;8.90;99.90
14769;DHT22;7476;49.404;11.152;2023-05-16T04:59:57;9.00;99.90
14769;DHT22;7476;49.404;11.152;2023-05-16T05:02:24;9.00;99.90
14769;DHT22;7476;49.404;11.152;2023-05-16T05:04:51;9.10;99.90
14769;DHT22;7476;49.404;11.152;2023-05-16T05:07:20;9.10;99.90
14769;DHT22;7476;49.404;11.152;2023-05-16T05:09:47;9.30;99.90
14769;DHT22;7476;49.404;11.152;2023-05-16T05:12:14;9.40;99.90
14769;DHT22;7476;49.404;11.152;2023-05-16T05:14:40;9.50;99.90
14769;DHT22;7476;49.404;11.152;2023-05-16T05:17:07;9.60;99.90
14769;DHT22;7476;49.404;11.152;2023-05-16T05:19:34;9.60;99.90
14769;DHT22;7476;49.404;11.152;2023-05-16T05:22:00;9.70;99.90
14769;DHT22;7476;49.404;11.152;2023-05-16T05:24:28;9.90;99.90
14769;DHT22;7476;49.404;11.152;2023-05-16T05:26:55;9.90;99.90
14769;DHT22;7476;49.404;11.152;2023-05-16T05:29:22;10.00;99.90
14769;DHT22;7476;49.404;11.152;2023-05-16T05:31:48;10.10;99.90
14769;DHT22;7476;49.404;11.152;2023-05-16T05:34:15;10.10;99.90
14769;DHT22;7476;49.404;11.152;2023-05-16T05:36:42;10.30;99.90
14769;DHT22;7476;49.404;11.152;2023-05-16T05:39:08;10.50;99.90
14769;DHT22;7476;49.404;11.152;2023-05-16T05:41:37;10.50;99.90
14769;DHT22;7476;49.404;11.152;2023-05-16T05:44:04;10.60;99.90
14769;DHT22;7476;49.404;11.152;2023-05-16T05:46:31;10.70;99.90
14769;DHT22;7476;49.404;11.152;2023-05-16T05:48:59;10.80;99.90
14769;DHT22;7476;49.404;11.152;2023-05-16T05:51:25;10.80;99.90
14769;DHT22;7476;49.404;11.152;2023-05-16T05:53:53;10.90;99.90
14769;DHT22;7476;49.404;11.152;2023-05-16T05:56:20;11.10;99.90
14769;DHT22;7476;49.404;11.152;2023-05-16T05:58:48;11.20;99.90
14769;DHT22;7476;49.404;11.152;2023-05-16T06:01:15;11.40;99.90
14769;DHT22;7476;49.404;11.152;2023-05-16T06:03:41;11.50;99.90
14769;DHT22;7476;49.404;11.152;2023-05-16T06:06:08;11.80;99.90
14769;DHT22;7476;49.404;11.152;2023-05-16T06:08:35;12.20;99.90
14769;DHT22;7476;49.404;11.152;2023-05-16T06:11:02;12.70;99.90
14769;DHT22;7476;49.404;11.152;2023-05-16T06:13:28;12.90;99.90
14769;DHT22;7476;49.404;11.152;2023-05-16T06:15:56;12.90;99.90
14769;DHT22;7476;49.404;11.152;2023-05-16T06:18:23;12.90;99.90
14769;DHT22;7476;49.404;11.152;2023-05-16T06:20:51;13.00;99.90
14769;DHT22;7476;49.404;11.152;2023-05-16T06:23:18;13.20;99.90
14769;DHT22;7476;49.404;11.152;2023-05-16T06:25:45;13.30;99.90
14769;DHT22;7476;49.404;11.152;2023-05-16T06:28:11;13.60;99.90
14769;DHT22;7476;49.404;11.152;2023-05-16T06:30:38;13.90;99.90
14769;DHT22;7476;49.404;11.152;2023-05-16T06:33:06;14.30;99.90
14769;DHT22;7476;49.404;11.152;2023-05-16T06:35:33;14.70;99.90
14769;DHT22;7476;49.404;11.152;2023-05-16T06:37:59;15.30;99.90
14769;DHT22;7476;49.404;11.152;2023-05-16T06:40:26;15.40;99.90
14769;DHT22;7476;49.404;11.152;2023-05-16T06:42:53;16.00;99.90
14769;DHT22;7476;49.404;11.152;2023-05-16T06:45:22;16.40;99.90
14769;DHT22;7476;49.404;11.152;2023-05-16T06:47:49;16.00;99.90
14769;DHT22;7476;49.404;11.152;2023-05-16T06:50:18;15.90;99.90
14769;DHT22;7476;49.404;11.152;2023-05-16T06:52:44;15.70;99.90
14769;DHT22;7476;49.404;11.152;2023-05-16T06:55:11;16.00;99.90
14769;DHT22;7476;49.404;11.152;2023-05-16T06:57:38;16.00;99.90
14769;DHT22;7476;49.404;11.152;2023-05-16T07:00:06;15.90;99.90
14769;DHT22;7476;49.404;11.152;2023-05-16T07:02:33;16.20;99.90
14769;DHT22;7476;49.404;11.152;2023-05-16T07:05:00;16.70;99.90
14769;DHT22;7476;49.404;11.152;2023-05-16T07:07:28;16.70;99.90
14769;DHT22;7476;49.404;11.152;2023-05-16T07:09:55;16.70;99.90
14769;DHT22;7476;49.404;11.152;2023-05-16T07:12:21;17.50;99.90
14769;DHT22;7476;49.404;11.152;2023-05-16T07:14:48;17.70;99.90
14769;DHT22;7476;49.404;11.152;2023-05-16T07:17:15;17.80;99.90
14769;DHT22;7476;49.404;11.152;2023-05-16T07:19:41;17.20;99.90
14769;DHT22;7476;49.404;11.152;2023-05-16T07:22:08;17.20;99.90
14769;DHT22;7476;49.404;11.152;2023-05-16T07:24:36;17.40;99.90
14769;DHT22;7476;49.404;11.152;2023-05-16T07:27:03;18.00;99.90
14769;DHT22;7476;49.404;11.152;2023-05-16T07:29:30;17.80;99.90
14769;DHT22;7476;49.404;11.152;2023-05-16T07:31:57;17.70;99.90
14769;DHT22;7476;49.404;11.152;2023-05-16T07:34:24;18.10;99.90
14769;DHT22;7476;49.404;11.152;2023-05-16T07:36:50;18.40;99.90
14769;DHT22;7476;49.404;11.152;2023-05-16T07:39:17;18.10;99.90
14769;DHT22;7476;49.404;11.152;2023-05-16T07:41:45;18.20;99.90
14769;DHT22;7476;49.404;11.152;2023-05-16T07:44:12;19.50;99.90
14769;DHT22;7476;49.404;11.152;2023-05-16T07:46:39;19.60;99.90
14769;DHT22;7476;49.404;11.152;2023-05-16T07:49:05;20.10;99.90
14769;DHT22;7476;49.404;11.152;2023-05-16T07:51:32;19.70;99.90
14769;DHT22;7476;49.404;11.152;2023-05-16T07:53:58;19.70;99.90
14769;DHT22;7476;49.404;11.152;2023-05-16T07:56:25;19.60;99.90
14769;DHT22;7476;49.404;11.152;2023-05-16T07:58:53;19.80;99.90
14769;DHT22;7476;49.404;11.152;2023-05-16T08:01:20;19.40;99.90
14769;DHT22;7476;49.404;11.152;2023-05-16T08:03:47;19.30;99.90
14769;DHT22;7476;49.404;11.152;2023-05-16T08:06:13;19.50;99.90
14769;DHT22;7476;49.404;11.152;2023-05-16T08:08:40;19.50;99.90
14769;DHT22;7476;49.404;11.152;2023-05-16T08:11:07;18.60;99.90
14769;DHT22;7476;49.404;11.152;2023-05-16T08:13:33;18.90;99.90
14769;DHT22;7476;49.404;11.152;2023-05-16T08:16:01;19.30;99.90
14769;DHT22;7476;49.404;11.152;2023-05-16T08:18:28;19.30;99.90
14769;DHT22;7476;49.404;11.152;2023-05-16T08:20:55;19.20;99.90
14769;DHT22;7476;49.404;11.152;2023-05-16T08:23:22;19.20;99.90
14769;DHT22;7476;49.404;11.152;2023-05-16T08:25:48;19.90;99.90
14769;DHT22;7476;49.404;11.152;2023-05-16T08:28:15;20.20;99.90
14769;DHT22;7476;49.404;11.152;2023-05-16T08:30:42;19.90;99.90
14769;DHT22;7476;49.404;11.152;2023-05-16T08:33:10;20.20;99.90
14769;DHT22;7476;49.404;11.152;2023-05-16T08:35:36;19.90;99.90
14769;DHT22;7476;49.404;11.152;2023-05-16T08:38:03;19.90;99.90
14769;DHT22;7476;49.404;11.152;2023-05-16T08:40:30;19.30;99.90
14769;DHT22;7476;49.404;11.152;2023-05-16T08:42:56;19.60;99.90
14769;DHT22;7476;49.404;11.152;2023-05-16T08:45:23;19.70;99.90
14769;DHT22;7476;49.404;11.152;2023-05-16T08:47:53;20.40;99.90
14769;DHT22;7476;49.404;11.152;2023-05-16T08:50:23;21.70;99.90
14769;DHT22;7476;49.404;11.152;2023-05-16T08:52:51;20.60;99.90
14769;DHT22;7476;49.404;11.152;2023-05-16T08:55:19;20.00;99.90
14769;DHT22;7476;49.404;11.152;2023-05-16T08:57:47;20.10;99.90
14769;DHT22;7476;49.404;11.152;2023-05-16T09:00:15;19.60;99.90
14769;DHT22;7476;49.404;11.152;2023-05-16T09:02:42;20.00;99.90
14769;DHT22;7476;49.404;11.152;2023-05-16T09:05:11;20.10;99.90
14769;DHT22;7476;49.404;11.152;2023-05-16T09:07:39;19.90;99.90
14769;DHT22;7476;49.404;11.152;2023-05-16T09:10:07;19.80;99.90
14769;DHT22;7476;49.404;11.152;2023-05-16T09:12:34;20.80;99.90
14769;DHT22;7476;49.404;11.152;2023-05-16T09:15:01;20.80;99.90
14769;DHT22;7476;49.404;11.152;2023-05-16T09:17:33;21.30;99.90
14769;DHT22;7476;49.404;11.152;2023-05-16T09:20:07;21.50;99.90
14769;DHT22;7476;49.404;11.152;2023-05-16T09:22:34;20.80;99.90
14769;DHT22;7476;49.404;11.152;2023-05-16T09:25:02;20.80;99.90
14769;DHT22;7476;49.404;11.152;2023-05-16T09:27:30;21.20;99.90
14769;DHT22;7476;49.404;11.152;2023-05-16T09:29:57;21.10;99.90
14769;DHT22;7476;49.404;11.152;2023-05-16T09:32:24;21.10;99.90
14769;DHT22;7476;49.404;11.152;2023-05-16T09:34:52;21.20;99.90
14769;DHT22;7476;49.404;11.152;2023-05-16T09:37:22;21.00;99.90
14769;DHT22;7476;49.404;11.152;2023-05-16T09:39:49;20.30;99.90
14769;DHT22;7476;49.404;11.152;2023-05-16T09:42:18;20.00;99.90
14769;DHT22;7476;49.404;11.152;2023-05-16T09:44:46;19.70;99.90
14769;DHT22;7476;49.404;11.152;2023-05-16T09:47:14;19.50;99.90
14769;DHT22;7476;49.404;11.152;2023-05-16T09:49:42;19.70;99.90
14769;DHT22;7476;49.404;11.152;2023-05-16T09:52:09;19.80;99.90
14769;DHT22;7476;49.404;11.152;2023-05-16T09:54:36;19.20;99.90
14769;DHT22;7476;49.404;11.152;2023-05-16T09:57:03;19.10;99.90
14769;DHT22;7476;49.404;11.152;2023-05-16T09:59:35;18.70;99.90
14769;DHT22;7476;49.404;11.152;2023-05-16T10:02:02;18.50;99.90
14769;DHT22;7476;49.404;11.152;2023-05-16T10:04:30;17.80;99.90
14769;DHT22;7476;49.404;11.152;2023-05-16T10:07:01;18.10;99.90
14769;DHT22;7476;49.404;11.152;2023-05-16T10:09:29;18.60;99.90
14769;DHT22;7476;49.404;11.152;2023-05-16T10:11:57;18.40;99.90
14769;DHT22;7476;49.404;11.152;2023-05-16T10:14:27;18.60;99.90
14769;DHT22;7476;49.404;11.152;2023-05-16T10:16:57;18.60;99.90
14769;DHT22;7476;49.404;11.152;2023-05-16T10:19:25;19.40;99.90
14769;DHT22;7476;49.404;11.152;2023-05-16T10:21:57;18.90;99.90
14769;DHT22;7476;49.404;11.152;2023-05-16T10:24:30;18.30;99.90
14769;DHT22;7476;49.404;11.152;2023-05-16T10:26:59;18.10;99.90
14769;DHT22;7476;49.404;11.152;2023-05-16T10:29:27;18.70;99.90
14769;DHT22;7476;49.404;11.152;2023-05-16T10:31:56;18.90;99.90
14769;DHT22;7476;49.404;11.152;2023-05-16T10:34:25;19.10;99.90
14769;DHT22;7476;49.404;11.152;2023-05-16T10:36:52;19.50;99.90
14769;DHT22;7476;49.404;11.152;2023-05-16T10:39:19;19.40;99.90
14769;DHT22;7476;49.404;11.152;2023-05-16T10:41:46;19.30;99.90
14769;DHT22;7476;49.404;11.152;2023-05-16T10:44:14;19.30;99.90
14769;DHT22;7476;49.404;11.152;2023-05-16T10:46:41;19.20;99.90
14769;DHT22;7476;49.404;11.152;2023-05-16T10:49:23;19.40;99.90
14769;DHT22;7476;49.404;11.152;2023-05-16T10:52:04;19.60;99.90
14769;DHT22;7476;49.404;11.152;2023-05-16T10:54:35;19.20;99.90
14769;DHT22;7476;49.404;11.152;2023-05-16T10:57:04;19.90;99.90
14769;DHT22;7476;49.404;11.152;2023-05-16T10:59:39;19.80;99.90
14769;DHT22;7476;49.404;11.152;2023-05-16T11:02:21;20.40;99.90
14769;DHT22;7476;49.404;11.152;2023-05-16T11:04:50;20.90;99.90
14769;DHT22;7476;49.404;11.152;2023-05-16T11:07:18;20.50;99.90
14769;DHT22;7476;49.404;11.152;2023-05-16T11:09:50;20.50;99.90
14769;DHT22;7476;49.404;11.152;2023-05-16T11:12:19;19.80;99.90
14769;DHT22;7476;49.404;11.152;2023-05-16T11:14:50;20.60;99.90
14769;DHT22;7476;49.404;11.152;2023-05-16T11:17:20;21.00;99.90
14769;DHT22;7476;49.404;11.152;2023-05-16T11:19:51;20.60;99.90
14769;DHT22;7476;49.404;11.152;2023-05-16T11:22:23;20.20;99.90
14769;DHT22;7476;49.404;11.152;2023-05-16T11:24:53;19.90;99.90
14769;DHT22;7476;49.404;11.152;2023-05-16T11:27:21;20.20;99.90
14769;DHT22;7476;49.404;11.152;2023-05-16T11:29:48;19.90;99.90
14769;DHT22;7476;49.404;11.152;2023-05-16T11:32:21;20.50;99.90
14769;DHT22;7476;49.404;11.152;2023-05-16T11:34:50;20.40;99.90
14769;DHT22;7476;49.404;11.152;2023-05-16T11:37:18;20.80;99.90
14769;DHT22;7476;49.404;11.152;2023-05-16T11:39:46;20.60;99.90
14769;DHT22;7476;49.404;11.152;2023-05-16T11:42:13;20.00;99.90
14769;DHT22;7476;49.404;11.152;2023-05-16T11:44:40;19.80;99.90
14769;DHT22;7476;49.404;11.152;2023-05-16T11:47:07;20.30;99.90
14769;DHT22;7476;49.404;11.152;2023-05-16T11:49:34;20.00;99.90
14769;DHT22;7476;49.404;11.152;2023-05-16T11:52:03;20.50;99.90
14769;DHT22;7476;49.404;11.152;2023-05-16T11:54:31;20.40;99.90
14769;DHT22;7476;49.404;11.152;2023-05-16T11:56:59;21.30;99.90
14769;DHT22;7476;49.404;11.152;2023-05-16T11:59:26;21.40;99.90
14769;DHT22;7476;49.404;11.152;2023-05-16T12:01:53;20.70;99.90
14769;DHT22;7476;49.404;11.152;2023-05-16T12:04:19;20.30;99.90
14769;DHT22;7476;49.404;11.152;2023-05-16T12:06:58;20.30;99.90
14769;DHT22;7476;49.404;11.152;2023-05-16T12:09:27;20.90;99.90
14769;DHT22;7476;49.404;11.152;2023-05-16T12:11:54;21.20;99.90
14769;DHT22;7476;49.404;11.152;2023-05-16T12:14:21;20.50;99.90
14769;DHT22;7476;49.404;11.152;2023-05-16T12:16:50;20.30;99.90
14769;DHT22;7476;49.404;11.152;2023-05-16T12:19:17;19.90;99.90
14769;DHT22;7476;49.404;11.152;2023-05-16T12:21:44;20.00;99.90
14769;DHT22;7476;49.404;11.152;2023-05-16T12:24:11;19.80;99.90
14769;DHT22;7476;49.404;11.152;2023-05-16T12:26:40;19.70;99.90
14769;DHT22;7476;49.404;11.152;2023-05-16T12:29:08;19.60;99.90
14769;DHT22;7476;49.404;11.152;2023-05-16T12:31:37;20.00;99.90
14769;DHT22;7476;49.404;11.152;2023-05-16T12:34:13;19.50;99.90
14769;DHT22;7476;49.404;11.152;2023-05-16T12:36:40;18.90;99.90
14769;DHT22;7476;49.404;11.152;2023-05-16T12:39:10;18.80;99.90
14769;DHT22;7476;49.404;11.152;2023-05-16T12:41:41;19.10;99.90
14769;DHT22;7476;49.404;11.152;2023-05-16T12:44:12;19.60;99.90
14769;DHT22;7476;49.404;11.152;2023-05-16T12:46:42;20.60;99.90
14769;DHT22;7476;49.404;11.152;2023-05-16T12:49:09;21.30;99.90
14769;DHT22;7476;49.404;11.152;2023-05-16T12:51:35;20.90;99.90
14769;DHT22;7476;49.404;11.152;2023-05-16T12:54:10;21.90;99.90
14769;DHT22;7476;49.404;11.152;2023-05-16T12:56:39;20.80;99.90
14769;DHT22;7476;49.404;11.152;2023-05-16T12:59:06;19.90;99.90
14769;DHT22;7476;49.404;11.152;2023-05-16T13:01:33;19.70;99.90
14769;DHT22;7476;49.404;11.152;2023-05-16T13:04:01;19.40;99.90
14769;DHT22;7476;49.404;11.152;2023-05-16T13:06:28;19.40;99.90
14769;DHT22;7476;49.404;11.152;2023-05-16T13:08:55;19.60;99.90
14769;DHT22;7476;49.404;11.152;2023-05-16T13:11:22;19.70;99.90
14769;DHT22;7476;49.404;11.152;2023-05-16T13:13:50;20.10;99.90
14769;DHT22;7476;49.404;11.152;2023-05-16T13:16:17;21.30;99.90
14769;DHT22;7476;49.404;11.152;2023-05-16T13:18:43;22.10;99.90
14769;DHT22;7476;49.404;11.152;2023-05-16T13:21:10;22.50;99.90
14769;DHT22;7476;49.404;11.152;2023-05-16T13:23:37;22.70;99.90
14769;DHT22;7476;49.404;11.152;2023-05-16T13:26:04;24.10;98.70
14769;DHT22;7476;49.404;11.152;2023-05-16T13:28:30;23.10;99.30
14769;DHT22;7476;49.404;11.152;2023-05-16T13:30:58;22.90;99.90
14769;DHT22;7476;49.404;11.152;2023-05-16T13:33:25;21.20;99.90
14769;DHT22;7476;49.404;11.152;2023-05-16T13:35:52;20.20;99.90
14769;DHT22;7476;49.404;11.152;2023-05-16T13:38:19;19.50;99.90
14769;DHT22;7476;49.404;11.152;2023-05-16T13:40:46;18.90;99.90
14769;DHT22;7476;49.404;11.152;2023-05-16T13:43:13;19.10;99.90
14769;DHT22;7476;49.404;11.152;2023-05-16T13:45:40;19.80;99.90
14769;DHT22;7476;49.404;11.152;2023-05-16T13:48:08;20.00;99.90
14769;DHT22;7476;49.404;11.152;2023-05-16T13:50:34;19.50;99.90
14769;DHT22;7476;49.404;11.152;2023-05-16T13:53:01;19.40;99.90
14769;DHT22;7476;49.404;11.152;2023-05-16T13:55:28;19.00;99.90
14769;DHT22;7476;49.404;11.152;2023-05-16T13:57:55;18.50;99.90
14769;DHT22;7476;49.404;11.152;2023-05-16T14:00:22;18.10;99.90
14769;DHT22;7476;49.404;11.152;2023-05-16T14:02:48;18.00;99.90
14769;DHT22;7476;49.404;11.152;2023-05-16T14:05:16;18.10;99.90
14769;DHT22;7476;49.404;11.152;2023-05-16T14:07:43;17.40;99.90
14769;DHT22;7476;49.404;11.152;2023-05-16T14:10:10;17.30;99.90
14769;DHT22;7476;49.404;11.152;2023-05-16T14:12:37;17.00;99.90
14769;DHT22;7476;49.404;11.152;2023-05-16T14:15:05;17.20;99.90
14769;DHT22;7476;49.404;11.152;2023-05-16T14:17:32;17.50;99.90
14769;DHT22;7476;49.404;11.152;2023-05-16T14:19:59;17.50;99.90
14769;DHT22;7476;49.404;11.152;2023-05-16T14:22:27;17.20;99.90
14769;DHT22;7476;49.404;11.152;2023-05-16T14:24:53;17.20;99.90
14769;DHT22;7476;49.404;11.152;2023-05-16T14:27:20;16.90;99.90
14769;DHT22;7476;49.404;11.152;2023-05-16T14:29:47;17.10;99.90
14769;DHT22;7476;49.404;11.152;2023-05-16T14:32:13;17.00;99.90
14769;DHT22;7476;49.404;11.152;2023-05-16T14:34:40;16.50;99.90
14769;DHT22;7476;49.404;11.152;2023-05-16T14:37:07;16.40;99.90
14769;DHT22;7476;49.404;11.152;2023-05-16T14:39:36;16.50;99.90
14769;DHT22;7476;49.404;11.152;2023-05-16T14:42:03;16.50;99.90
14769;DHT22;7476;49.404;11.152;2023-05-16T14:44:30;16.70;99.90
14769;DHT22;7476;49.404;11.152;2023-05-16T14:46:56;16.70;99.90
14769;DHT22;7476;49.404;11.152;2023-05-16T14:49:23;16.50;99.90
14769;DHT22;7476;49.404;11.152;2023-05-16T14:51:50;16.10;99.90
14769;DHT22;7476;49.404;11.152;2023-05-16T14:54:16;16.20;99.90
14769;DHT22;7476;49.404;11.152;2023-05-16T14:56:45;16.00;99.90
14769;DHT22;7476;49.404;11.152;2023-05-16T14:59:12;16.20;99.90
14769;DHT22;7476;49.404;11.152;2023-05-16T15:01:39;16.10;99.90
14769;DHT22;7476;49.404;11.152;2023-05-16T15:04:06;15.90;99.90
14769;DHT22;7476;49.404;11.152;2023-05-16T15:06:33;15.90;99.90
14769;DHT22;7476;49.404;11.152;2023-05-16T15:09:00;15.80;99.90
14769;DHT22;7476;49.404;11.152;2023-05-16T15:11:27;15.70;99.90
14769;DHT22;7476;49.404;11.152;2023-05-16T15:13:57;15.50;99.90
14769;DHT22;7476;49.404;11.152;2023-05-16T15:16:24;15.80;99.90
14769;DHT22;7476;49.404;11.152;2023-05-16T15:18:51;15.70;99.90
14769;DHT22;7476;49.404;11.152;2023-05-16T15:21:18;15.50;99.90
14769;DHT22;7476;49.404;11.152;2023-05-16T15:23:45;15.50;99.90
14769;DHT22;7476;49.404;11.152;2023-05-16T15:26:11;15.40;99.90
14769;DHT22;7476;49.404;11.152;2023-05-16T15:28:38;15.40;99.90
14769;DHT22;7476;49.404;11.152;2023-05-16T15:31:06;15.50;99.90
14769;DHT22;7476;49.404;11.152;2023-05-16T15:33:33;15.50;99.90
14769;DHT22;7476;49.404;11.152;2023-05-16T15:36:00;15.60;99.90
14769;DHT22;7476;49.404;11.152;2023-05-16T15:38:27;15.50;99.90